Time;durP1;ratioP1;P1;durP2;ratioP2;P2;SDS_P1;SDS_P2;PMS_P1;PMS_P2;Temp;Humidity;BMP_temperature;BMP_pressure;BME280_temperature;BME280_humidity;BME280_pressure;Samples;Min_cycle;Max_cycle;Signal;HPM_P1;HPM_P2
2023/03/27 00:01:14;;;;;;;;;;;;;;;4.59;50.16;91245.97;4949051;29;19981;-78
2023/03/27 00:03:41;;;;;;;;;;;;;;;4.50;50.85;91232.88;4953195;29;20369;-78
2023/03/27 00:06:15;;;;;;;;;;;;;;;4.49;51.20;91235.75;4952206;28;19914;-78
2023/03/27 00:08:41;;;;;;;;;;;;;;;4.64;50.01;91237.34;4949483;29;20017;-78
2023/03/27 00:11:06;;;;;;;;;;;;;;;4.48;49.74;91242.75;4950870;29;19918;-78
2023/03/27 00:13:32;;;;;;;;;;;;;;;4.43;48.82;91242.81;4950362;29;20007;-78
2023/03/27 00:15:58;;;;;;;;;;;;;;;4.50;48.03;91237.28;4967996;28;19922;-78
2023/03/27 00:18:24;;;;;;;;;;;;;;;4.59;48.40;91245.97;4953071;28;20013;-78
2023/03/27 00:20:50;;;;;;;;;;;;;;;4.56;49.74;91230.97;4949336;29;19993;-78
2023/03/27 00:23:16;;;;;;;;;;;;;;;4.46;50.99;91241.47;4953277;28;20377;-78
2023/03/27 00:25:41;;;;;;;;;;;;;;;4.43;50.80;91229.09;4952452;29;19925;-78
2023/03/27 00:28:10;;;;;;;;;;;;;;;4.35;51.29;91231.25;4950881;29;19918;-78
2023/03/27 00:30:36;;;;;;;;;;;;;;;4.34;50.40;91223.75;4951687;29;19981;-79
2023/03/27 00:33:01;;;;;;;;;;;;;;;4.45;50.28;91214.03;4951045;28;20376;-78
2023/03/27 00:35:28;;;;;;;;;;;;;;;4.38;50.86;91215.13;4956742;28;19925;-78
2023/03/27 00:37:54;;;;;;;;;;;;;;;4.55;49.45;91217.25;4957291;29;19918;-78
2023/03/27 00:40:20;;;;;;;;;;;;;;;4.78;47.06;91225.25;4944001;29;20265;-78
2023/03/27 00:42:47;;;;;;;;;;;;;;;4.90;48.46;91219.63;4958975;28;19942;-78
2023/03/27 00:45:15;;;;;;;;;;;;;;;4.85;48.01;91227.50;4955824;28;20400;-78
2023/03/27 00:47:41;;;;;;;;;;;;;;;5.25;46.66;91226.13;4949721;29;20373;-78
2023/03/27 00:50:11;;;;;;;;;;;;;;;5.40;46.21;91220.69;4958020;28;19925;-78
2023/03/27 00:52:39;;;;;;;;;;;;;;;5.43;46.11;91227.91;4945398;29;20005;-77
2023/03/27 00:55:07;;;;;;;;;;;;;;;5.39;46.44;91232.09;4942718;29;19918;-78
2023/03/27 00:57:33;;;;;;;;;;;;;;;5.50;45.94;91227.53;4940247;29;19922;-78
2023/03/27 01:00:00;;;;;;;;;;;;;;;5.59;45.61;91225.03;4951315;28;19914;-78
2023/03/27 01:02:26;;;;;;;;;;;;;;;5.50;45.62;91231.94;4940027;29;19922;-78
2023/03/27 01:04:52;;;;;;;;;;;;;;;5.47;46.93;91228.09;4970976;28;19961;-78
2023/03/27 01:07:18;;;;;;;;;;;;;;;5.39;47.33;91234.69;4971918;28;19921;-78
2023/03/27 01:09:44;;;;;;;;;;;;;;;5.79;45.09;91229.13;4957471;29;20397;-78
2023/03/27 01:12:10;;;;;;;;;;;;;;;5.75;45.60;91234.09;4958089;29;19925;-78
2023/03/27 01:14:49;;;;;;;;;;;;;;;5.91;45.18;91241.63;4958017;28;19914;-78
2023/03/27 01:17:41;;;;;;;;;;;;;;;6.05;45.18;91232.81;4957590;29;19946;-78
2023/03/27 01:20:08;;;;;;;;;;;;;;;5.86;44.88;91239.13;4946002;28;19922;-78
2023/03/27 01:22:40;;;;;;;;;;;;;;;5.77;47.30;91226.81;4954435;28;20297;-78
2023/03/27 01:25:09;;;;;;;;;;;;;;;5.58;47.82;91226.09;4942794;28;20297;-78
2023/03/27 01:27:50;;;;;;;;;;;;;;;5.43;48.06;91221.94;4973658;28;19914;-78
2023/03/27 01:30:22;;;;;;;;;;;;;;;5.38;47.91;91216.81;4942031;29;19944;-78
2023/03/27 01:32:48;;;;;;;;;;;;;;;5.60;47.26;91227.34;4958648;28;19914;-78
2023/03/27 01:35:14;;;;;;;;;;;;;;;5.60;47.13;91227.34;4961214;28;19925;-78
2023/03/27 01:37:49;;;;;;;;;;;;;;;5.48;49.16;91221.84;4976799;28;19918;-78
2023/03/27 01:40:25;;;;;;;;;;;;;;;5.51;48.05;91228.28;4976202;28;19914;-78
2023/03/27 01:43:00;;;;;;;;;;;;;;;5.68;47.63;91227.75;4974288;28;19914;-78
2023/03/27 01:45:51;;;;;;;;;;;;;;;5.48;49.03;91227.03;4989006;28;19914;-78
2023/03/27 01:48:25;;;;;;;;;;;;;;;5.45;48.65;91226.81;4973007;28;20009;-78
2023/03/27 01:51:00;;;;;;;;;;;;;;;5.28;49.08;91228.13;4975485;28;19921;-78
2023/03/27 01:53:38;;;;;;;;;;;;;;;5.33;49.57;91216.91;4973456;28;19981;-78
2023/03/27 01:56:17;;;;;;;;;;;;;;;5.27;50.17;91231.78;4972604;28;19922;-78
2023/03/27 01:58:46;;;;;;;;;;;;;;;5.33;49.09;91220.25;4974193;28;19921;-78
2023/03/27 02:01:21;;;;;;;;;;;;;;;5.36;49.31;91231.91;4970651;28;19961;-78
2023/03/27 02:03:52;;;;;;;;;;;;;;;5.83;47.76;91217.09;4970252;28;19914;-78
2023/03/27 02:06:23;;;;;;;;;;;;;;;6.01;47.49;91198.09;4973508;28;19968;-78
2023/03/27 02:09:10;;;;;;;;;;;;;;;6.03;46.67;91229.75;4973802;28;19965;-78
2023/03/27 02:11:40;;;;;;;;;;;;;;;6.23;47.24;91212.22;4973123;28;19914;-78
2023/03/27 02:14:07;;;;;;;;;;;;;;;6.08;48.40;91222.91;4969009;28;19977;-78
2023/03/27 02:16:35;;;;;;;;;;;;;;;6.11;48.70;91211.94;4958894;28;20380;-78
2023/03/27 02:19:10;;;;;;;;;;;;;;;6.11;48.21;91227.53;4970206;28;19925;-78
2023/03/27 02:21:36;;;;;;;;;;;;;;;6.01;48.77;91231.06;4975413;28;19918;-78
2023/03/27 02:24:04;;;;;;;;;;;;;;;6.21;47.60;91222.13;4973057;28;19925;-78
2023/03/27 02:26:31;;;;;;;;;;;;;;;6.18;47.61;91218.28;4973554;28;20030;-78
2023/03/27 02:29:15;;;;;;;;;;;;;;;6.20;48.44;91228.41;4957824;28;19952;-78
2023/03/27 02:31:50;;;;;;;;;;;;;;;6.11;47.70;91230.13;4973720;28;20335;-78
2023/03/27 02:34:25;;;;;;;;;;;;;;;6.08;48.05;91222.91;4971165;28;19915;-78
2023/03/27 02:37:01;;;;;;;;;;;;;;;6.16;48.44;91223.00;4972864;28;19941;-78
2023/03/27 02:40:00;;;;;;;;;;;;;;;6.09;48.78;91227.81;4974400;28;20358;-78
2023/03/27 02:42:35;;;;;;;;;;;;;;;6.12;48.23;91229.06;4977687;28;19921;-78
2023/03/27 02:45:10;;;;;;;;;;;;;;;6.10;48.04;91233.78;4970948;28;19921;-78
2023/03/27 02:47:38;;;;;;;;;;;;;;;6.14;48.44;91239.94;4988932;28;19914;-78
2023/03/27 02:50:08;;;;;;;;;;;;;;;6.18;47.86;91235.72;4988698;28;19965;-78
2023/03/27 02:52:45;;;;;;;;;;;;;;;6.16;48.22;91230.78;4971458;28;19926;-78
2023/03/27 02:55:14;;;;;;;;;;;;;;;6.14;48.38;91237.34;4972706;28;19949;-79
2023/03/27 02:57:44;;;;;;;;;;;;;;;6.07;48.86;91244.75;4968386;28;19960;-78
2023/03/27 03:00:28;;;;;;;;;;;;;;;6.11;48.66;91245.72;4976157;28;19969;-78
2023/03/27 03:03:26;;;;;;;;;;;;;;;6.15;48.09;91238.91;4937784;28;19915;-78
2023/03/27 03:05:57;;;;;;;;;;;;;;;6.19;47.66;91221.66;4953276;28;19918;-78
2023/03/27 03:08:23;;;;;;;;;;;;;;;6.09;48.45;91237.44;4962150;28;19941;-78
2023/03/27 03:10:48;;;;;;;;;;;;;;;6.02;48.47;91243.00;4974495;28;19914;-78
2023/03/27 03:13:14;;;;;;;;;;;;;;;6.05;48.91;91242.44;4973285;28;19977;-78
2023/03/27 03:15:41;;;;;;;;;;;;;;;6.17;49.46;91240.13;4971020;28;20029;-78
2023/03/27 03:18:07;;;;;;;;;;;;;;;6.19;46.77;91242.44;4972530;28;20380;-78
2023/03/27 03:20:36;;;;;;;;;;;;;;;6.07;48.76;91270.72;4971544;28;19922;-78
2023/03/27 03:23:03;;;;;;;;;;;;;;;6.05;49.22;91258.03;4959788;28;19981;-78
2023/03/27 03:25:30;;;;;;;;;;;;;;;5.94;49.11;91244.44;4956529;28;20364;-78
2023/03/27 03:27:57;;;;;;;;;;;;;;;5.86;49.71;91257.31;4971985;28;19925;-78
2023/03/27 03:30:24;;;;;;;;;;;;;;;5.96;49.71;91247.53;4972233;28;19933;-78
2023/03/27 03:33:01;;;;;;;;;;;;;;;5.89;50.54;91264.53;4972136;28;20328;-78
2023/03/27 03:35:27;;;;;;;;;;;;;;;5.90;49.84;91255.66;4968708;28;19977;-78
2023/03/27 03:37:54;;;;;;;;;;;;;;;5.79;50.49;91245.47;4982123;28;19928;-78
2023/03/27 03:40:20;;;;;;;;;;;;;;;5.83;48.71;91243.06;4970250;28;19993;-78
2023/03/27 03:42:48;;;;;;;;;;;;;;;5.91;48.80;91259.81;4972072;28;20037;-78
2023/03/27 03:45:15;;;;;;;;;;;;;;;6.11;47.69;91256.88;4971511;28;19918;-78
2023/03/27 03:47:41;;;;;;;;;;;;;;;6.23;47.90;91259.00;4970260;28;20376;-78
2023/03/27 03:50:07;;;;;;;;;;;;;;;6.18;48.54;91274.69;4972139;28;19919;-78
2023/03/27 03:52:33;;;;;;;;;;;;;;;6.27;47.83;91259.19;4971413;28;19914;-78
2023/03/27 03:54:59;;;;;;;;;;;;;;;6.57;45.37;91263.03;4971112;28;20292;-78
2023/03/27 03:57:24;;;;;;;;;;;;;;;6.37;48.21;91282.38;4968563;28;20013;-78
2023/03/27 04:00:07;;;;;;;;;;;;;;;6.17;50.97;91276.53;4971622;28;19922;-78
2023/03/27 04:02:50;;;;;;;;;;;;;;;6.17;47.98;91280.94;4952479;29;20381;-78
2023/03/27 04:05:15;;;;;;;;;;;;;;;6.14;47.76;91282.28;4976872;28;19914;-78
2023/03/27 04:07:41;;;;;;;;;;;;;;;6.23;48.24;91279.78;4970810;28;20296;-79
2023/03/27 04:10:27;;;;;;;;;;;;;;;6.15;48.98;91294.22;4963470;28;19926;-78
2023/03/27 04:12:53;;;;;;;;;;;;;;;6.14;50.91;91313.44;4970814;28;19918;-78
2023/03/27 04:15:26;;;;;;;;;;;;;;;6.22;47.03;91293.84;4982452;28;19914;-78
2023/03/27 04:17:58;;;;;;;;;;;;;;;6.31;47.07;91309.53;4972532;28;19922;-79
2023/03/27 04:20:25;;;;;;;;;;;;;;;6.43;46.24;91261.19;4967973;28;19925;-78
2023/03/27 04:22:53;;;;;;;;;;;;;;;6.59;45.89;91295.47;4960905;28;19925;-78
2023/03/27 04:25:21;;;;;;;;;;;;;;;6.58;46.38;91329.56;4970159;28;20364;-78
2023/03/27 04:27:50;;;;;;;;;;;;;;;6.65;46.23;91285.75;4972087;28;19918;-78
2023/03/27 04:30:23;;;;;;;;;;;;;;;6.67;46.30;91304.44;4970183;28;19934;-78
2023/03/27 04:33:17;;;;;;;;;;;;;;;6.70;45.85;91290.84;4971963;28;20285;-78
2023/03/27 04:35:55;;;;;;;;;;;;;;;6.68;45.77;91291.13;4960833;28;19922;-78
2023/03/27 04:38:25;;;;;;;;;;;;;;;6.67;46.25;91297.41;4985280;28;19916;-78
2023/03/27 04:40:53;;;;;;;;;;;;;;;6.79;45.85;91315.09;4971713;28;19918;-78
2023/03/27 04:43:20;;;;;;;;;;;;;;;6.81;46.25;91320.03;4947906;28;20551;-78
2023/03/27 04:45:47;;;;;;;;;;;;;;;6.76;46.36;91341.69;4961888;28;19914;-78
2023/03/27 04:48:13;;;;;;;;;;;;;;;6.75;45.72;91341.97;4967911;28;19922;-78
2023/03/27 04:50:42;;;;;;;;;;;;;;;6.78;46.88;91325.81;4968959;28;19926;-78
2023/03/27 04:53:10;;;;;;;;;;;;;;;6.74;46.31;91333.41;4967566;28;19914;-78
2023/03/27 04:55:40;;;;;;;;;;;;;;;6.81;46.53;91314.81;4954665;28;19929;-78
2023/03/27 04:58:07;;;;;;;;;;;;;;;6.74;47.04;91349.03;4962144;28;19928;-78
2023/03/27 05:00:37;;;;;;;;;;;;;;;6.80;47.16;91345.28;4965519;28;19922;-80
2023/03/27 05:03:35;;;;;;;;;;;;;;;6.73;47.53;91350.06;4947181;28;19918;-78
2023/03/27 05:06:07;;;;;;;;;;;;;;;6.65;49.21;91353.34;4970184;28;19933;-79
2023/03/27 05:08:35;;;;;;;;;;;;;;;6.60;48.42;91358.66;4969198;28;19922;-79
2023/03/27 05:11:01;;;;;;;;;;;;;;;6.47;50.87;91370.59;4969404;28;19925;-78
2023/03/27 05:13:32;;;;;;;;;;;;;;;6.30;52.07;91378.94;4963906;28;19918;-78
2023/03/27 05:16:00;;;;;;;;;;;;;;;6.26;49.10;91398.78;4990439;28;20017;-77
2023/03/27 05:18:29;;;;;;;;;;;;;;;6.24;49.95;91396.44;4965760;28;19966;-78
2023/03/27 05:20:58;;;;;;;;;;;;;;;6.16;53.51;91401.53;4970013;28;19921;-77
2023/03/27 05:23:26;;;;;;;;;;;;;;;6.21;51.43;91394.44;4988013;28;19915;-77
2023/03/27 05:25:55;;;;;;;;;;;;;;;6.17;50.79;91393.44;4975363;28;19981;-78
2023/03/27 05:28:22;;;;;;;;;;;;;;;6.27;51.97;91379.50;4977166;28;19921;-77
2023/03/27 05:30:48;;;;;;;;;;;;;;;6.09;53.47;91395.94;4995548;28;19917;-78
2023/03/27 05:33:23;;;;;;;;;;;;;;;6.17;53.71;91401.25;4973885;28;20284;-78
2023/03/27 05:35:51;;;;;;;;;;;;;;;6.16;51.34;91417.88;4973838;28;19922;-77
2023/03/27 05:38:17;;;;;;;;;;;;;;;6.28;52.32;91404.44;4973796;28;20363;-76
2023/03/27 05:40:51;;;;;;;;;;;;;;;6.33;52.66;91408.78;4955197;28;19918;-77
2023/03/27 05:43:17;;;;;;;;;;;;;;;6.53;52.00;91407.66;4961131;28;19925;-76
2023/03/27 05:45:43;;;;;;;;;;;;;;;6.67;51.14;91411.81;4973863;28;19918;-77
2023/03/27 05:48:09;;;;;;;;;;;;;;;6.81;50.13;91408.47;4975879;28;20020;-77
2023/03/27 05:50:39;;;;;;;;;;;;;;;7.02;48.88;91414.03;4977009;28;19922;-79
2023/03/27 05:53:12;;;;;;;;;;;;;;;7.18;49.58;91433.53;4978032;28;19914;-79
2023/03/27 05:55:46;;;;;;;;;;;;;;;7.91;47.61;91420.53;4977522;28;19914;-79
2023/03/27 05:58:12;;;;;;;;;;;;;;;8.85;46.00;91434.50;4964958;28;19919;-79
2023/03/27 06:00:41;;;;;;;;;;;;;;;10.01;43.18;91431.50;4987427;28;19918;-79
2023/03/27 06:03:07;;;;;;;;;;;;;;;10.70;42.49;91435.16;4964175;28;19914;-79
2023/03/27 06:05:58;;;;;;;;;;;;;;;11.74;41.09;91462.03;4978518;28;19925;-77
2023/03/27 06:08:27;;;;;;;;;;;;;;;12.34;40.58;91449.59;4979109;28;19997;-79
2023/03/27 06:10:54;;;;;;;;;;;;;;;13.03;39.25;91454.19;4977874;28;19918;-78
2023/03/27 06:13:30;;;;;;;;;;;;;;;13.63;37.31;91456.47;4977888;28;19918;-77
2023/03/27 06:16:03;;;;;;;;;;;;;;;14.16;35.98;91467.78;4975609;28;20009;-79
2023/03/27 06:18:58;;;;;;;;;;;;;;;14.99;35.50;91462.91;4990532;28;19914;-78
2023/03/27 06:21:25;;;;;;;;;;;;;;;15.70;33.99;91484.25;4964375;28;20400;-79
2023/03/27 06:23:56;;;;;;;;;;;;;;;15.97;32.30;91504.50;4973755;28;19915;-77
2023/03/27 06:26:22;;;;;;;;;;;;;;;15.97;32.19;91483.38;4974555;28;19977;-78
2023/03/27 06:28:48;;;;;;;;;;;;;;;16.14;31.79;91476.94;4992762;28;19994;-79
2023/03/27 06:31:16;;;;;;;;;;;;;;;16.31;32.22;91475.06;4994496;28;19994;-79
2023/03/27 06:34:04;;;;;;;;;;;;;;;16.43;31.57;91490.75;4977561;28;19922;-79
2023/03/27 06:36:40;;;;;;;;;;;;;;;16.62;30.80;91482.09;4978258;28;19969;-79
2023/03/27 06:39:20;;;;;;;;;;;;;;;17.16;31.18;91488.44;4961495;28;19914;-79
2023/03/27 06:42:00;;;;;;;;;;;;;;;17.39;30.45;91504.31;4978501;28;19914;-78
2023/03/27 06:44:46;;;;;;;;;;;;;;;18.03;29.40;91504.63;4978992;28;19996;-78
2023/03/27 06:47:37;;;;;;;;;;;;;;;18.40;29.83;91502.13;4979242;28;19920;-78
2023/03/27 06:50:31;;;;;;;;;;;;;;;18.54;28.61;91506.84;4978127;28;19922;-79
2023/03/27 06:53:06;;;;;;;;;;;;;;;18.91;29.11;91522.88;4978578;28;19914;-80
2023/03/27 06:55:39;;;;;;;;;;;;;;;19.12;28.69;91535.63;4978405;28;19993;-79
2023/03/27 06:58:12;;;;;;;;;;;;;;;19.26;28.59;91534.25;4978198;28;20408;-79
2023/03/27 07:04:17;;;;;;;;;;;;;;;20.24;26.80;91552.63;4978659;28;20351;-80
2023/03/27 07:07:02;;;;;;;;;;;;;;;20.88;25.30;91576.25;4972279;28;20388;-80
2023/03/27 07:13:07;;;;;;;;;;;;;;;21.28;25.71;91604.56;4979666;28;19921;-79
2023/03/27 07:15:34;;;;;;;;;;;;;;;21.05;25.56;91593.41;4979209;28;19922;-78
2023/03/27 07:18:06;;;;;;;;;;;;;;;20.16;26.06;91589.75;4978488;28;20296;-78
2023/03/27 07:20:39;;;;;;;;;;;;;;;18.77;27.85;91578.38;4994048;28;20376;-80
2023/03/27 07:23:38;;;;;;;;;;;;;;;17.12;29.07;91594.13;4977282;28;19965;-80
2023/03/27 07:26:09;;;;;;;;;;;;;;;15.40;31.98;91598.03;4977610;28;20061;-78
2023/03/27 07:29:12;;;;;;;;;;;;;;;14.32;33.31;91573.16;4976846;28;19968;-79
2023/03/27 07:31:41;;;;;;;;;;;;;;;12.77;35.53;91619.91;4977432;28;19925;-79
2023/03/27 07:34:15;;;;;;;;;;;;;;;13.08;36.75;91629.22;4977248;28;19917;-78
2023/03/27 07:37:10;;;;;;;;;;;;;;;13.18;36.55;91634.09;4982956;28;19941;-79
2023/03/27 07:39:40;;;;;;;;;;;;;;;13.26;36.90;91640.38;4974518;28;20339;-79
2023/03/27 07:42:13;;;;;;;;;;;;;;;13.75;36.24;91651.06;4976509;28;20004;-79
2023/03/27 07:45:08;;;;;;;;;;;;;;;14.07;36.64;91660.03;4957126;28;19921;-79
2023/03/27 07:47:35;;;;;;;;;;;;;;;14.28;35.89;91673.09;4976169;28;19918;-79
2023/03/27 07:50:02;;;;;;;;;;;;;;;14.46;35.67;91659.72;4976346;28;19944;-79
2023/03/27 07:52:28;;;;;;;;;;;;;;;14.26;36.51;91672.66;4977822;28;19920;-79
2023/03/27 07:54:59;;;;;;;;;;;;;;;14.03;35.67;91679.44;4944500;28;19918;-79
2023/03/27 07:57:37;;;;;;;;;;;;;;;13.98;36.47;91677.00;4957117;29;19922;-78
2023/03/27 08:00:11;;;;;;;;;;;;;;;13.94;36.21;91684.78;4956843;29;20336;-79
2023/03/27 08:02:42;;;;;;;;;;;;;;;13.81;36.27;91688.47;4958730;29;19914;-79
2023/03/27 08:05:10;;;;;;;;;;;;;;;13.94;36.06;91693.44;4972524;28;20005;-78
2023/03/27 08:07:36;;;;;;;;;;;;;;;13.79;35.36;91693.28;4956728;29;19914;-78
2023/03/27 08:10:03;;;;;;;;;;;;;;;13.59;36.01;91713.28;4974017;28;19936;-77
2023/03/27 08:12:35;;;;;;;;;;;;;;;13.26;35.25;91709.50;4976202;28;19910;-77
2023/03/27 08:15:01;;;;;;;;;;;;;;;12.66;36.72;91723.78;4975595;28;19914;-77
2023/03/27 08:17:29;;;;;;;;;;;;;;;13.12;37.48;91728.13;4991775;28;19914;-78
2023/03/27 08:19:55;;;;;;;;;;;;;;;13.47;36.11;91735.78;4974372;28;20368;-79
2023/03/27 08:22:22;;;;;;;;;;;;;;;13.56;35.23;91748.13;4975042;28;19913;-79
2023/03/27 08:25:11;;;;;;;;;;;;;;;13.82;36.27;91751.28;4976785;28;20285;-78
2023/03/27 08:27:39;;;;;;;;;;;;;;;13.80;35.39;91765.84;4975853;28;19918;-79
2023/03/27 08:30:05;;;;;;;;;;;;;;;13.89;34.71;91775.22;4972544;28;20005;-78
2023/03/27 08:32:35;;;;;;;;;;;;;;;13.78;35.25;91778.53;4941193;29;20300;-78
2023/03/27 08:35:08;;;;;;;;;;;;;;;14.15;33.79;91758.41;4956130;29;20408;-79
2023/03/27 08:37:34;;;;;;;;;;;;;;;14.13;33.81;91776.38;4940872;29;20377;-79
2023/03/27 08:40:20;;;;;;;;;;;;;;;13.89;34.10;91772.59;4959133;28;19999;-79
2023/03/27 08:42:48;;;;;;;;;;;;;;;13.91;34.70;91774.88;4960682;28;20373;-79
2023/03/27 08:45:28;;;;;;;;;;;;;;;14.08;34.13;91776.59;4969207;28;19922;-79
2023/03/27 08:48:04;;;;;;;;;;;;;;;13.80;33.82;91785.00;4976101;28;19914;-79
2023/03/27 08:50:35;;;;;;;;;;;;;;;13.84;33.47;91777.25;4974464;28;19921;-79
2023/03/27 08:53:13;;;;;;;;;;;;;;;14.10;33.28;91782.31;4990811;28;19949;-78
2023/03/27 08:55:40;;;;;;;;;;;;;;;14.26;33.57;91777.19;4950950;28;19921;-78
2023/03/27 08:58:29;;;;;;;;;;;;;;;14.13;33.53;91800.06;4971179;28;19914;-79
2023/03/27 09:01:35;;;;;;;;;;;;;;;14.15;33.76;91800.50;4974571;28;19918;-80
2023/03/27 09:04:23;;;;;;;;;;;;;;;14.00;33.48;91809.00;4975034;28;19942;-78
2023/03/27 09:06:59;;;;;;;;;;;;;;;14.20;33.57;91800.31;4970515;28;19943;-79
2023/03/27 09:09:31;;;;;;;;;;;;;;;14.13;32.94;91807.97;4978481;28;19918;-79
2023/03/27 09:12:08;;;;;;;;;;;;;;;14.02;33.21;91791.78;4955599;29;19915;-79
2023/03/27 09:14:39;;;;;;;;;;;;;;;13.76;32.12;91802.56;4984312;28;20402;-79
2023/03/27 09:17:20;;;;;;;;;;;;;;;13.38;33.58;91815.81;4978606;28;19922;-80
2023/03/27 09:19:56;;;;;;;;;;;;;;;12.97;33.16;91814.59;4971689;28;19914;-79
2023/03/27 09:22:30;;;;;;;;;;;;;;;12.93;31.38;91826.84;4961581;28;20332;-81
2023/03/27 09:25:27;;;;;;;;;;;;;;;13.30;32.72;91833.16;4976309;28;19914;-80
2023/03/27 09:28:19;;;;;;;;;;;;;;;13.60;32.40;91841.81;4972533;28;19921;-80
2023/03/27 09:30:53;;;;;;;;;;;;;;;13.75;31.35;91833.31;4979710;28;20396;-80
2023/03/27 09:33:25;;;;;;;;;;;;;;;13.44;31.27;91828.47;4981161;28;19914;-80
2023/03/27 09:35:52;;;;;;;;;;;;;;;13.32;30.69;91842.28;4979732;28;19958;-80
2023/03/27 09:38:18;;;;;;;;;;;;;;;13.39;31.43;91830.50;4976534;28;19969;-82
2023/03/27 09:40:43;;;;;;;;;;;;;;;12.61;34.85;91823.69;4979296;28;19914;-80
2023/03/27 09:43:17;;;;;;;;;;;;;;;12.73;33.64;91834.34;4980452;28;19914;-80
2023/03/27 09:45:43;;;;;;;;;;;;;;;13.20;33.57;91836.91;4979867;28;19957;-80
2023/03/27 09:48:12;;;;;;;;;;;;;;;13.54;31.33;91825.44;4977762;28;20443;-79
2023/03/27 09:50:43;;;;;;;;;;;;;;;13.73;31.42;91840.00;4979763;28;19918;-79
2023/03/27 09:53:17;;;;;;;;;;;;;;;13.89;30.87;91834.94;4978975;28;19938;-79
2023/03/27 09:56:00;;;;;;;;;;;;;;;13.98;30.85;91826.97;4979406;28;19994;-79
2023/03/27 09:58:30;;;;;;;;;;;;;;;14.04;30.08;91833.59;4969903;28;19914;-78
2023/03/27 10:01:12;;;;;;;;;;;;;;;13.81;32.02;91857.59;4978116;28;20004;-79
2023/03/27 10:03:47;;;;;;;;;;;;;;;13.97;31.17;91852.53;4972241;28;20416;-77
2023/03/27 10:06:15;;;;;;;;;;;;;;;13.49;32.31;91844.03;4957013;28;19918;-76
2023/03/27 10:09:01;;;;;;;;;;;;;;;13.24;33.02;91852.78;4971920;28;19971;-74
2023/03/27 10:11:33;;;;;;;;;;;;;;;13.40;32.90;91842.56;4971586;28;19918;-79
2023/03/27 10:14:11;;;;;;;;;;;;;;;13.26;32.27;91835.66;4958661;28;19970;-81
2023/03/27 10:16:41;;;;;;;;;;;;;;;13.70;31.56;91838.03;4981439;28;19921;-80
2023/03/27 10:19:19;;;;;;;;;;;;;;;14.00;31.58;91840.56;4973444;28;19918;-79
2023/03/27 10:21:46;;;;;;;;;;;;;;;14.26;30.11;91832.47;4965017;28;20443;-79
2023/03/27 10:24:25;;;;;;;;;;;;;;;14.42;29.29;91830.00;4967326;28;20384;-80
2023/03/27 10:27:16;;;;;;;;;;;;;;;14.53;29.84;91847.69;4970927;28;20284;-79
2023/03/27 10:30:01;;;;;;;;;;;;;;;14.03;28.68;91837.31;4975837;28;20403;-79
2023/03/27 10:32:45;;;;;;;;;;;;;;;13.78;29.36;91850.34;4989298;28;20296;-80
2023/03/27 10:35:38;;;;;;;;;;;;;;;13.97;29.43;91857.03;4956772;28;20511;-79
2023/03/27 10:38:17;;;;;;;;;;;;;;;14.06;29.46;91844.56;4972039;28;19914;-79
2023/03/27 10:41:03;;;;;;;;;;;;;;;14.23;29.18;91854.94;4977320;28;19928;-80
2023/03/27 10:43:41;;;;;;;;;;;;;;;14.11;28.06;91849.63;4974818;28;19921;-80
2023/03/27 10:46:12;;;;;;;;;;;;;;;14.36;29.61;91842.56;4988270;28;19961;-79
2023/03/27 10:48:56;;;;;;;;;;;;;;;14.46;29.55;91841.41;4979420;28;19933;-79
2023/03/27 10:51:24;;;;;;;;;;;;;;;14.32;27.98;91854.84;4969827;28;19977;-81
2023/03/27 10:54:00;;;;;;;;;;;;;;;14.50;28.47;91858.09;4971284;28;21329;-80
2023/03/27 10:56:40;;;;;;;;;;;;;;;14.30;27.84;91855.19;4956457;28;19922;-79
2023/03/27 10:59:12;;;;;;;;;;;;;;;14.25;27.15;91858.03;4954089;28;19918;-80
2023/03/27 11:01:42;;;;;;;;;;;;;;;14.12;27.44;91846.69;4963642;28;19914;-79
2023/03/27 11:04:19;;;;;;;;;;;;;;;14.15;28.52;91853.91;4956989;28;19914;-80
2023/03/27 11:06:52;;;;;;;;;;;;;;;13.99;27.83;91855.59;4962409;28;19913;-79
2023/03/27 11:09:22;;;;;;;;;;;;;;;14.18;28.51;91857.75;4971211;28;19925;-79
2023/03/27 11:12:13;;;;;;;;;;;;;;;14.43;28.20;91860.47;4963097;28;19921;-79
2023/03/27 11:15:00;;;;;;;;;;;;;;;14.42;28.02;91861.59;4975770;28;19918;-80
2023/03/27 11:17:31;;;;;;;;;;;;;;;14.25;27.96;91867.78;4957497;28;19976;-80
2023/03/27 11:20:43;;;;;;;;;;;;;;;14.41;27.28;91855.56;4968005;28;20287;-80
2023/03/27 11:23:21;;;;;;;;;;;;;;;14.54;28.30;91885.31;4960807;28;19913;-81
2023/03/27 11:26:10;;;;;;;;;;;;;;;14.78;27.69;91879.38;4956949;28;19921;-79
2023/03/27 11:28:41;;;;;;;;;;;;;;;14.93;27.24;91880.63;4972770;28;19954;-80
2023/03/27 11:31:47;;;;;;;;;;;;;;;14.84;28.06;91879.94;4970501;28;19914;-80
2023/03/27 11:34:32;;;;;;;;;;;;;;;14.90;27.71;91876.75;4951935;28;19915;-80
2023/03/27 11:37:25;;;;;;;;;;;;;;;14.64;27.87;91869.16;4952772;29;20005;-80
2023/03/27 11:40:01;;;;;;;;;;;;;;;14.41;27.24;91883.72;4980685;28;19914;-80
2023/03/27 11:42:30;;;;;;;;;;;;;;;14.43;28.13;91892.84;4973992;28;19925;-80
2023/03/27 11:44:56;;;;;;;;;;;;;;;14.03;26.29;91872.28;4972485;28;19914;-80
2023/03/27 11:47:40;;;;;;;;;;;;;;;14.22;27.24;91919.19;4973778;28;20307;-79
2023/03/27 11:50:06;;;;;;;;;;;;;;;14.55;27.14;91913.22;4973325;28;19918;-80
2023/03/27 11:52:45;;;;;;;;;;;;;;;14.65;27.10;91893.63;4964504;28;19953;-80
2023/03/27 11:55:14;;;;;;;;;;;;;;;14.76;26.84;91892.09;4974011;28;19953;-80
2023/03/27 11:57:49;;;;;;;;;;;;;;;14.89;26.78;91908.72;4984466;28;19914;-79
2023/03/27 12:00:54;;;;;;;;;;;;;;;14.84;26.86;91908.91;4987348;28;19914;-80
2023/03/27 12:03:19;;;;;;;;;;;;;;;14.74;25.88;91891.66;4956251;28;19957;-80
2023/03/27 12:06:04;;;;;;;;;;;;;;;14.82;25.52;91908.50;4988008;28;19961;-79
2023/03/27 12:08:33;;;;;;;;;;;;;;;14.90;26.28;91920.78;4986713;28;20372;-79
2023/03/27 12:11:02;;;;;;;;;;;;;;;14.42;24.62;91893.19;4973949;28;19998;-78
2023/03/27 12:13:55;;;;;;;;;;;;;;;14.50;24.80;91911.53;4972060;28;19925;-80
2023/03/27 12:16:42;;;;;;;;;;;;;;;14.56;25.89;91907.63;4972821;28;19920;-81
2023/03/27 12:19:23;;;;;;;;;;;;;;;14.71;25.25;91898.34;4989898;28;19914;-79
2023/03/27 12:22:03;;;;;;;;;;;;;;;14.49;25.58;91920.53;4970426;28;20312;-80
2023/03/27 12:25:05;;;;;;;;;;;;;;;14.59;24.23;91922.03;4972397;28;19918;-78
2023/03/27 12:28:08;;;;;;;;;;;;;;;14.43;24.96;91921.03;4901484;29;20405;-79
2023/03/27 12:31:05;;;;;;;;;;;;;;;14.55;25.34;91918.50;4972629;28;20418;-79
2023/03/27 12:33:49;;;;;;;;;;;;;;;14.69;25.89;91926.13;4969629;28;19943;-78
2023/03/27 12:36:18;;;;;;;;;;;;;;;14.42;25.01;91922.16;4970435;28;19918;-79
2023/03/27 12:38:45;;;;;;;;;;;;;;;14.42;24.81;91930.81;4974200;28;19925;-78
2023/03/27 12:41:18;;;;;;;;;;;;;;;14.53;25.60;91920.66;4973045;28;19921;-78
2023/03/27 12:44:02;;;;;;;;;;;;;;;14.70;25.13;91912.63;4973012;28;19933;-79
2023/03/27 12:46:39;;;;;;;;;;;;;;;14.84;25.70;91914.19;4966153;28;19914;-78
2023/03/27 12:49:06;;;;;;;;;;;;;;;14.82;25.19;91921.66;4969546;28;19922;-79
2023/03/27 12:51:50;;;;;;;;;;;;;;;14.80;25.13;91913.31;4973751;28;19952;-80
2023/03/27 12:54:41;;;;;;;;;;;;;;;14.72;24.63;91913.06;4950307;28;19914;-79
2023/03/27 12:57:42;;;;;;;;;;;;;;;14.40;25.08;91917.19;4974949;28;19965;-80
2023/03/27 13:00:20;;;;;;;;;;;;;;;14.53;25.01;91920.66;4989822;28;19921;-78
2023/03/27 13:03:06;;;;;;;;;;;;;;;14.73;24.65;91919.13;4974961;28;20292;-80
2023/03/27 13:05:50;;;;;;;;;;;;;;;14.63;24.83;91920.28;4971183;28;19915;-79
2023/03/27 13:08:45;;;;;;;;;;;;;;;14.83;26.11;91931.09;4960899;28;19917;-80
2023/03/27 13:11:33;;;;;;;;;;;;;;;14.89;24.95;91921.91;4991033;28;19922;-79
2023/03/27 13:14:23;;;;;;;;;;;;;;;14.77;24.22;91933.16;4976365;28;19914;-79
2023/03/27 13:17:07;;;;;;;;;;;;;;;14.91;24.30;91933.66;4974587;28;19957;-80
2023/03/27 13:19:36;;;;;;;;;;;;;;;14.77;24.27;91923.41;4974706;28;19940;-80
2023/03/27 13:22:46;;;;;;;;;;;;;;;14.83;24.45;91939.00;4974892;28;20404;-79
2023/03/27 13:25:23;;;;;;;;;;;;;;;14.66;24.53;91945.97;4974600;28;19914;-78
2023/03/27 13:27:49;;;;;;;;;;;;;;;14.57;23.19;91946.06;4962821;28;19922;-79
2023/03/27 13:30:35;;;;;;;;;;;;;;;14.39;24.70;91931.47;4955484;29;19962;-80
2023/03/27 13:33:12;;;;;;;;;;;;;;;14.60;23.59;91946.50;4958381;28;19914;-79
2023/03/27 13:35:40;;;;;;;;;;;;;;;14.67;24.09;91958.03;4963999;28;20320;-79